createdAt,value
2023-02-27T00:00:15.787Z,12.70
2023-02-27T00:01:19.954Z,9.80
2023-02-27T00:02:24.406Z,12.90
2023-02-27T00:03:27.147Z,10.50
2023-02-27T00:04:30.318Z,10.55
2023-02-27T00:05:33.134Z,12.60
2023-02-27T00:06:35.896Z,12.30
2023-02-27T00:07:38.431Z,12.90
2023-02-27T00:08:41.058Z,11.00
2023-02-27T00:09:43.969Z,11.00
2023-02-27T00:10:46.678Z,11.10
2023-02-27T00:11:49.160Z,8.70
2023-02-27T00:12:51.822Z,10.30
2023-02-27T00:13:54.398Z,7.80
2023-02-27T00:14:57.730Z,12.80
2023-02-27T00:16:00.468Z,10.40
2023-02-27T00:17:03.223Z,11.18
2023-02-27T00:18:07.004Z,10.55
2023-02-27T00:19:11.118Z,6.90
2023-02-27T00:20:16.235Z,9.70
2023-02-27T00:21:18.959Z,12.10
2023-02-27T00:22:21.733Z,10.10
2023-02-27T00:23:25.982Z,10.00
2023-02-27T00:24:29.874Z,9.70
2023-02-27T00:25:33.513Z,8.80
2023-02-27T00:26:38.390Z,10.80
2023-02-27T00:27:41.152Z,12.10
2023-02-27T00:28:43.761Z,10.82
2023-02-27T00:29:47.314Z,11.60
2023-02-27T00:30:49.871Z,11.00
2023-02-27T00:31:54.443Z,10.70
2023-02-27T00:32:57.376Z,8.90
2023-02-27T00:34:00.242Z,9.80
2023-02-27T00:35:06.825Z,9.45
2023-02-27T00:36:09.641Z,11.00
2023-02-27T00:37:12.649Z,9.80
2023-02-27T00:38:15.154Z,9.90
2023-02-27T00:39:17.585Z,11.10
2023-02-27T00:40:20.623Z,7.40
2023-02-27T00:41:23.036Z,9.36
2023-02-27T00:42:29.768Z,7.90
2023-02-27T00:43:32.978Z,9.00
2023-02-27T00:44:35.979Z,8.10
2023-02-27T00:45:38.517Z,9.60
2023-02-27T00:46:41.472Z,8.70
2023-02-27T00:47:44.258Z,8.00
2023-02-27T00:48:46.777Z,8.27
2023-02-27T00:49:49.861Z,9.00
2023-02-27T00:50:53.648Z,9.10
2023-02-27T00:51:56.139Z,9.00
2023-02-27T00:52:59.727Z,7.50
2023-02-27T00:54:03.263Z,9.27
2023-02-27T00:55:08.364Z,9.20
2023-02-27T00:56:11.814Z,8.00
2023-02-27T00:57:16.072Z,9.60
2023-02-27T00:58:19.676Z,8.10
2023-02-27T00:59:23.582Z,9.40
2023-02-27T01:00:28.501Z,8.20
2023-02-27T01:01:32.373Z,9.40
2023-02-27T01:02:35.375Z,5.10
2023-02-27T01:03:38.580Z,7.40
2023-02-27T01:04:41.134Z,7.60
2023-02-27T01:05:44.123Z,5.60
2023-02-27T01:06:48.373Z,6.90
2023-02-27T01:07:51.215Z,9.20
2023-02-27T01:08:56.219Z,6.80
2023-02-27T01:10:01.785Z,6.80
2023-02-27T01:11:05.109Z,8.50
2023-02-27T01:12:07.835Z,6.70
2023-02-27T01:13:11.392Z,8.00
2023-02-27T01:14:14.523Z,6.27
2023-02-27T01:15:21.721Z,7.80
2023-02-27T01:16:24.397Z,8.10
2023-02-27T01:17:27.362Z,6.50
2023-02-27T01:18:29.805Z,7.30
2023-02-27T01:19:32.173Z,6.20
2023-02-27T01:20:34.708Z,8.50
2023-02-27T01:21:37.706Z,7.80
2023-02-27T01:22:43.556Z,7.20
2023-02-27T01:23:47.917Z,6.40
2023-02-27T01:24:51.693Z,7.00
2023-02-27T01:25:54.319Z,4.60
2023-02-27T01:26:57.087Z,7.50
2023-02-27T01:28:00.365Z,6.00
2023-02-27T01:29:06.334Z,6.40
2023-02-27T01:30:11.435Z,6.40
2023-02-27T01:31:14.766Z,6.00
2023-02-27T01:32:18.430Z,7.70
2023-02-27T01:33:22.755Z,4.30
2023-02-27T01:34:25.290Z,6.80
2023-02-27T01:35:27.945Z,7.50
2023-02-27T01:36:31.427Z,6.40
2023-02-27T01:37:34.072Z,6.20
2023-02-27T01:38:36.607Z,7.40
2023-02-27T01:39:41.246Z,8.40
2023-02-27T01:40:44.181Z,7.50
2023-02-27T01:41:47.041Z,6.18
2023-02-27T01:42:49.776Z,5.64
2023-02-27T01:43:55.827Z,5.20
2023-02-27T01:45:26.982Z,6.80
2023-02-27T01:46:30.934Z,7.30
2023-02-27T01:47:33.708Z,7.60
2023-02-27T01:48:37.158Z,7.36
2023-02-27T01:49:39.656Z,4.60
2023-02-27T01:50:57.806Z,6.00
2023-02-27T01:52:05.420Z,7.00
2023-02-27T01:53:08.025Z,6.80
2023-02-27T01:54:10.695Z,6.50
2023-02-27T01:55:13.598Z,2.20
2023-02-27T01:56:28.192Z,2.82
2023-02-27T01:57:30.708Z,6.30
2023-02-27T01:58:33.950Z,7.20
2023-02-27T01:59:39.437Z,5.70
2023-02-27T02:00:43.338Z,5.50
2023-02-27T02:01:47.521Z,6.20
2023-02-27T02:04:14.924Z,5.30
2023-02-27T02:05:17.381Z,5.90
2023-02-27T02:06:20.502Z,4.82
2023-02-27T02:07:24.779Z,4.55
2023-02-27T02:08:28.463Z,6.00
2023-02-27T02:09:31.259Z,5.70
2023-02-27T02:10:35.061Z,6.30
2023-02-27T02:11:39.129Z,5.00
2023-02-27T02:12:41.945Z,5.50
2023-02-27T02:13:45.516Z,5.10
2023-02-27T02:14:47.819Z,6.30
2023-02-27T02:16:01.058Z,4.30
2023-02-27T02:17:17.099Z,5.50
2023-02-27T02:19:55.249Z,4.80
2023-02-27T02:21:06.816Z,4.00
2023-02-27T02:22:42.947Z,4.70
2023-02-27T02:24:23.817Z,3.80
2023-02-27T02:25:53.475Z,5.10
2023-02-27T02:27:27.439Z,4.70
2023-02-27T02:30:33.235Z,4.90
2023-02-27T02:32:02.571Z,4.10
2023-02-27T02:33:13.032Z,4.40
2023-02-27T02:34:40.540Z,6.50
2023-02-27T02:36:08.514Z,2.60
2023-02-27T02:37:17.770Z,5.00
2023-02-27T02:38:37.083Z,4.90
2023-02-27T02:40:10.715Z,4.40
2023-02-27T02:41:26.360Z,4.80
2023-02-27T02:42:35.813Z,4.80
2023-02-27T02:43:48.830Z,1.60
2023-02-27T02:45:10.029Z,4.80
2023-02-27T02:46:16.896Z,5.30
2023-02-27T02:49:12.046Z,4.90
2023-02-27T02:50:29.768Z,3.80
2023-02-27T02:53:01.527Z,4.50
2023-02-27T02:54:30.922Z,4.10
2023-02-27T02:55:47.163Z,3.50
2023-02-27T02:57:08.965Z,3.90
2023-02-27T02:59:43.862Z,5.00
2023-02-27T03:02:03.328Z,6.20
2023-02-27T03:03:14.712Z,4.80
2023-02-27T03:04:41.776Z,5.60
2023-02-27T03:07:09.837Z,4.70
2023-02-27T03:08:16.111Z,3.10
2023-02-27T03:09:28.464Z,4.20
2023-02-27T03:10:41.519Z,4.10
2023-02-27T03:11:47.593Z,5.20
2023-02-27T03:12:53.915Z,4.30
2023-02-27T03:14:03.233Z,4.30
2023-02-27T03:15:20.341Z,4.80
2023-02-27T03:17:49.165Z,4.20
2023-02-27T03:19:07.551Z,4.20
2023-02-27T03:21:50.902Z,4.40
2023-02-27T03:22:55.631Z,3.50
2023-02-27T03:23:59.766Z,4.55
2023-02-27T03:25:05.769Z,4.60
2023-02-27T03:26:09.701Z,3.90
2023-02-27T03:27:12.796Z,4.30
2023-02-27T03:28:18.607Z,3.90
2023-02-27T03:29:24.952Z,4.70
2023-02-27T03:31:59.704Z,4.70
2023-02-27T03:33:08.936Z,3.20
2023-02-27T03:34:21.283Z,3.40
2023-02-27T03:36:49.062Z,4.40
2023-02-27T03:37:58.430Z,3.30
2023-02-27T03:39:13.750Z,3.20
2023-02-27T03:40:30.158Z,3.90
2023-02-27T03:41:46.546Z,4.40
2023-02-27T03:44:26.798Z,3.50
2023-02-27T03:45:49.928Z,3.90
2023-02-27T03:46:54.165Z,3.80
2023-02-27T03:47:57.981Z,3.50
2023-02-27T03:49:00.461Z,3.91
2023-02-27T03:50:04.479Z,4.20
2023-02-27T03:51:07.137Z,3.50
2023-02-27T03:52:10.848Z,3.40
2023-02-27T03:53:23.227Z,4.30
2023-02-27T03:54:27.438Z,3.60
2023-02-27T03:55:35.706Z,3.90
2023-02-27T03:56:44.488Z,3.90
2023-02-27T03:57:47.806Z,5.30
2023-02-27T03:58:50.846Z,1.00
2023-02-27T03:59:54.767Z,3.70
2023-02-27T04:00:58.835Z,3.30
2023-02-27T04:02:02.960Z,4.40
2023-02-27T04:03:05.918Z,3.60
2023-02-27T04:04:14.414Z,3.20
2023-02-27T04:05:35.213Z,4.10
2023-02-27T04:07:05.356Z,3.20
2023-02-27T04:08:27.139Z,3.00
2023-02-27T04:11:29.235Z,4.20
2023-02-27T04:12:56.044Z,3.60
2023-02-27T04:15:40.406Z,4.50
2023-02-27T04:16:49.998Z,3.90
2023-02-27T04:19:39.617Z,5.00
2023-02-27T04:21:01.012Z,4.20
2023-02-27T04:22:19.471Z,3.90
2023-02-27T04:23:39.938Z,4.00
2023-02-27T04:26:22.253Z,5.60
2023-02-27T04:28:55.886Z,5.90
2023-02-27T04:30:11.824Z,5.20
2023-02-27T04:31:39.369Z,5.40
2023-02-27T04:34:08.687Z,5.20
2023-02-27T04:36:33.303Z,3.50
2023-02-27T04:37:39.522Z,5.90
2023-02-27T04:38:45.496Z,4.50
2023-02-27T04:39:54.702Z,4.70
2023-02-27T04:41:02.810Z,5.10
2023-02-27T04:42:11.349Z,6.30
2023-02-27T04:43:14.438Z,4.30
2023-02-27T04:44:18.406Z,5.70
2023-02-27T04:45:23.471Z,4.70
2023-02-27T04:46:27.208Z,5.90
2023-02-27T04:47:36.532Z,2.70
2023-02-27T04:50:29.058Z,3.10
2023-02-27T04:52:55.694Z,5.10
2023-02-27T04:54:00.834Z,5.30
2023-02-27T04:56:26.868Z,5.20
2023-02-27T04:57:41.588Z,4.80
2023-02-27T04:58:50.008Z,6.20
2023-02-27T04:59:54.562Z,5.80
2023-02-27T05:01:01.924Z,5.70
2023-02-27T05:02:08.362Z,5.90
2023-02-27T05:03:13.531Z,5.70
2023-02-27T05:04:17.841Z,5.50
2023-02-27T05:06:36.081Z,7.30
2023-02-27T05:07:41.328Z,5.70
2023-02-27T05:09:02.855Z,4.50
2023-02-27T05:10:07.825Z,5.60
2023-02-27T05:11:25.554Z,6.40
2023-02-27T05:12:35.304Z,6.00
2023-02-27T05:15:13.646Z,5.20
2023-02-27T05:16:38.295Z,5.60
2023-02-27T05:17:45.345Z,6.50
2023-02-27T05:18:48.854Z,6.10
2023-02-27T05:19:51.303Z,6.60
2023-02-27T05:22:46.371Z,1.60
2023-02-27T05:23:56.367Z,5.00
2023-02-27T05:25:03.496Z,6.60
2023-02-27T05:26:29.590Z,4.70
2023-02-27T05:27:41.591Z,6.00
2023-02-27T05:28:53.877Z,6.70
2023-02-27T05:30:06.447Z,5.80
2023-02-27T05:31:28.537Z,7.40
2023-02-27T05:33:58.588Z,9.70
2023-02-27T05:35:11.250Z,12.80
2023-02-27T05:36:29.655Z,13.20
2023-02-27T05:37:43.340Z,12.90
2023-02-27T05:38:51.990Z,15.00
2023-02-27T05:39:55.857Z,13.00
2023-02-27T05:41:12.084Z,7.90
2023-02-27T05:42:30.067Z,13.70
2023-02-27T05:43:39.511Z,16.20
2023-02-27T05:44:44.503Z,16.60
2023-02-27T05:45:50.098Z,14.20
2023-02-27T05:46:55.738Z,13.70
2023-02-27T05:48:04.941Z,13.90
2023-02-27T05:49:26.900Z,15.60
2023-02-27T05:50:31.211Z,18.30
2023-02-27T05:51:35.227Z,17.70
2023-02-27T05:52:38.779Z,11.30
2023-02-27T05:53:44.883Z,18.50
2023-02-27T05:54:53.171Z,18.00
2023-02-27T05:55:58.749Z,16.60
2023-02-27T05:57:02.474Z,11.90
2023-02-27T05:58:26.479Z,13.20
2023-02-27T05:59:51.550Z,22.00
2023-02-27T06:00:59.048Z,18.60
2023-02-27T06:02:02.652Z,17.20
2023-02-27T06:03:06.531Z,15.60
2023-02-27T06:04:10.063Z,17.30
2023-02-27T06:05:16.415Z,18.60
2023-02-27T06:06:20.214Z,19.20
2023-02-27T06:07:23.953Z,14.80
2023-02-27T06:08:26.757Z,16.50
2023-02-27T06:09:29.138Z,18.50
2023-02-27T06:10:34.846Z,21.10
2023-02-27T06:11:38.017Z,12.30
2023-02-27T06:12:41.724Z,18.00
2023-02-27T06:13:44.986Z,17.70
2023-02-27T06:14:47.581Z,19.90
2023-02-27T06:15:49.900Z,16.90
2023-02-27T06:16:52.732Z,17.60
2023-02-27T06:17:55.911Z,17.18
2023-02-27T06:18:58.344Z,16.30
2023-02-27T06:20:01.839Z,16.10
2023-02-27T06:21:05.293Z,16.50
2023-02-27T06:22:11.171Z,15.20
2023-02-27T06:23:13.847Z,15.20
2023-02-27T06:24:16.421Z,16.50
2023-02-27T06:25:21.507Z,16.70
2023-02-27T06:26:24.127Z,13.60
2023-02-27T06:27:27.200Z,15.70
2023-02-27T06:28:29.827Z,15.30
2023-02-27T06:29:33.133Z,17.40
2023-02-27T06:30:37.089Z,8.30
2023-02-27T06:31:39.806Z,14.20
2023-02-27T06:32:42.254Z,18.00
2023-02-27T06:33:45.137Z,13.80
2023-02-27T06:34:48.320Z,17.90
2023-02-27T06:35:52.238Z,13.20
2023-02-27T06:36:55.022Z,15.00
2023-02-27T06:37:58.687Z,18.30
2023-02-27T06:39:01.398Z,13.50
2023-02-27T06:40:07.905Z,16.40
2023-02-27T06:41:10.407Z,15.40
2023-02-27T06:42:13.459Z,14.70
2023-02-27T06:43:16.057Z,17.00
2023-02-27T06:44:19.662Z,16.40
2023-02-27T06:45:24.713Z,13.90
2023-02-27T06:46:28.048Z,16.10
2023-02-27T06:47:31.177Z,16.70
2023-02-27T06:48:33.656Z,15.40
2023-02-27T06:49:36.640Z,17.50
2023-02-27T06:50:39.333Z,14.50
2023-02-27T06:51:45.003Z,15.40
2023-02-27T06:52:47.461Z,14.00
2023-02-27T06:53:49.927Z,14.00
2023-02-27T06:54:52.824Z,15.00
2023-02-27T06:55:55.345Z,16.00
2023-02-27T06:56:59.768Z,17.60
2023-02-27T06:58:02.504Z,15.30
2023-02-27T06:59:05.331Z,11.55
2023-02-27T07:00:11.368Z,18.09
2023-02-27T07:01:14.065Z,15.80
2023-02-27T07:02:17.202Z,13.55
2023-02-27T07:03:20.181Z,15.40
2023-02-27T07:04:23.226Z,15.20
2023-02-27T07:05:26.210Z,14.70
2023-02-27T07:07:32.666Z,15.00
2023-02-27T07:07:38.027Z,14.90
2023-02-27T07:09:00.931Z,15.80
2023-02-27T07:09:43.641Z,13.30
2023-02-27T07:10:48.421Z,12.55
2023-02-27T07:11:51.004Z,12.90
2023-02-27T07:12:53.776Z,16.20
2023-02-27T07:13:56.296Z,12.27
2023-02-27T07:14:58.973Z,13.90
2023-02-27T07:16:01.958Z,14.00
2023-02-27T07:17:04.965Z,14.20
2023-02-27T07:18:08.080Z,9.36
2023-02-27T07:19:12.151Z,14.30
2023-02-27T07:20:14.861Z,14.70
2023-02-27T07:21:17.911Z,11.90
2023-02-27T07:22:20.509Z,15.70
2023-02-27T07:23:23.027Z,12.00
2023-02-27T07:24:25.643Z,11.50
2023-02-27T07:25:29.532Z,12.40
2023-02-27T07:26:32.234Z,14.60
2023-02-27T07:27:34.679Z,14.30
2023-02-27T07:28:38.089Z,14.30
2023-02-27T07:29:41.007Z,13.40
2023-02-27T07:30:45.175Z,11.20
2023-02-27T07:31:48.933Z,13.50
2023-02-27T07:32:52.203Z,12.70
2023-02-27T07:33:54.665Z,10.73
2023-02-27T07:34:58.400Z,11.20
2023-02-27T07:36:00.782Z,13.70
2023-02-27T07:37:04.485Z,10.70
2023-02-27T07:38:07.486Z,14.90
2023-02-27T07:39:11.751Z,13.90
2023-02-27T07:40:14.968Z,12.60
2023-02-27T07:41:29.626Z,13.90
2023-02-27T07:42:22.028Z,11.20
2023-02-27T07:43:25.240Z,13.20
2023-02-27T07:44:28.216Z,10.00
2023-02-27T07:45:30.911Z,11.50
2023-02-27T07:46:33.885Z,12.50
2023-02-27T07:47:36.644Z,13.80
2023-02-27T07:48:40.845Z,12.50
2023-02-27T07:49:43.574Z,13.40
2023-02-27T07:50:46.167Z,10.73
2023-02-27T07:51:48.853Z,10.60
2023-02-27T07:52:51.539Z,10.10
2023-02-27T07:53:57.796Z,11.40
2023-02-27T07:55:00.848Z,11.40
2023-02-27T07:56:04.192Z,10.90
2023-02-27T07:57:06.717Z,12.40
2023-02-27T07:58:09.709Z,12.09
2023-02-27T07:59:12.544Z,10.90
2023-02-27T08:00:15.891Z,11.30
2023-02-27T08:01:19.492Z,13.10
2023-02-27T08:02:22.506Z,11.10
2023-02-27T08:03:25.400Z,11.00
2023-02-27T08:04:28.619Z,9.70
2023-02-27T08:05:31.199Z,9.20
2023-02-27T08:06:34.024Z,11.55
2023-02-27T08:07:36.944Z,11.82
2023-02-27T08:08:39.545Z,11.64
2023-02-27T08:09:42.131Z,9.80
2023-02-27T08:10:45.543Z,9.80
2023-02-27T08:11:49.256Z,11.10
2023-02-27T08:12:53.539Z,10.60
2023-02-27T08:14:00.459Z,10.60
2023-02-27T08:15:01.095Z,12.40
2023-02-27T08:16:04.797Z,9.60
2023-02-27T08:17:09.227Z,10.20
2023-02-27T08:18:11.969Z,10.40
2023-02-27T08:19:15.073Z,8.00
2023-02-27T08:20:20.918Z,11.50
2023-02-27T08:21:23.540Z,9.80
2023-02-27T08:22:26.125Z,10.80
2023-02-27T08:23:29.539Z,10.80
2023-02-27T08:24:32.114Z,10.30
2023-02-27T08:25:34.481Z,9.70
2023-02-27T08:26:37.856Z,12.90
2023-02-27T08:27:40.493Z,14.20
2023-02-27T08:28:43.504Z,8.82
2023-02-27T08:29:46.121Z,9.82
2023-02-27T08:30:48.892Z,9.36
2023-02-27T08:31:51.392Z,10.00
2023-02-27T08:32:55.790Z,6.30
2023-02-27T08:34:09.372Z,10.90
2023-02-27T08:35:03.743Z,10.20
2023-02-27T08:36:07.554Z,8.70
2023-02-27T08:37:10.866Z,8.80
2023-02-27T08:38:14.282Z,9.30
2023-02-27T08:39:18.152Z,8.10
2023-02-27T08:40:21.377Z,10.80
2023-02-27T08:41:23.977Z,8.20
2023-02-27T08:42:26.993Z,8.80
2023-02-27T08:43:30.782Z,7.60
2023-02-27T08:44:33.740Z,9.40
2023-02-27T08:45:37.130Z,9.00
2023-02-27T08:46:39.793Z,9.30
2023-02-27T08:47:45.139Z,5.20
2023-02-27T08:48:48.507Z,8.80
2023-02-27T08:49:51.094Z,8.91
2023-02-27T08:50:57.470Z,8.20
2023-02-27T08:52:00.922Z,9.50
2023-02-27T08:53:03.854Z,10.40
2023-02-27T08:54:07.436Z,8.80
2023-02-27T08:55:10.515Z,8.90
2023-02-27T08:56:14.909Z,9.20
2023-02-27T08:57:17.486Z,9.50
2023-02-27T08:58:20.507Z,6.10
2023-02-27T08:59:23.326Z,8.30
2023-02-27T09:00:26.923Z,7.80
2023-02-27T09:01:32.342Z,6.60
2023-02-27T09:02:35.125Z,7.50
2023-02-27T09:03:39.018Z,7.73
2023-02-27T09:04:41.843Z,7.10
2023-02-27T09:05:44.367Z,6.64
2023-02-27T09:06:47.538Z,8.36
2023-02-27T09:07:50.472Z,8.20
2023-02-27T09:08:53.175Z,4.70
2023-02-27T09:09:56.434Z,6.82
2023-02-27T09:10:59.538Z,7.60
2023-02-27T09:12:03.017Z,9.30
2023-02-27T09:13:05.550Z,7.90
2023-02-27T09:14:08.223Z,7.27
2023-02-27T09:15:11.492Z,7.36
2023-02-27T09:16:15.447Z,8.20
2023-02-27T09:17:19.403Z,8.60
2023-02-27T09:18:22.906Z,7.30
2023-02-27T09:19:26.427Z,8.80
2023-02-27T09:20:35.381Z,8.30
2023-02-27T09:21:38.198Z,7.20
2023-02-27T09:22:42.342Z,7.20
2023-02-27T09:23:45.483Z,6.80
2023-02-27T09:24:48.760Z,8.00
2023-02-27T09:25:51.634Z,6.60
2023-02-27T09:26:54.481Z,7.10
2023-02-27T09:27:57.793Z,7.40
2023-02-27T09:29:00.632Z,8.60
2023-02-27T09:30:04.576Z,9.30
2023-02-27T09:31:07.837Z,6.70
2023-02-27T09:32:10.750Z,6.90
2023-02-27T09:33:14.726Z,6.80
2023-02-27T09:34:17.499Z,7.50
2023-02-27T09:35:20.123Z,6.27
2023-02-27T09:36:23.895Z,7.55
2023-02-27T09:37:27.788Z,8.70
2023-02-27T09:38:30.768Z,7.30
2023-02-27T09:39:33.350Z,7.00
2023-02-27T09:40:41.096Z,7.80
2023-02-27T09:41:59.348Z,9.20
2023-02-27T09:43:04.982Z,7.60
2023-02-27T09:44:17.344Z,9.60
2023-02-27T09:45:29.532Z,9.20
2023-02-27T09:46:32.100Z,7.30
2023-02-27T09:47:40.793Z,7.45
2023-02-27T09:50:20.322Z,8.70
2023-02-27T09:51:23.038Z,7.40
2023-02-27T09:52:27.573Z,8.20
2023-02-27T09:53:34.440Z,7.10
2023-02-27T09:54:37.110Z,8.40
2023-02-27T09:55:40.245Z,6.60
2023-02-27T09:56:49.263Z,6.70
2023-02-27T09:57:55.868Z,6.00
2023-02-27T09:59:04.699Z,7.30
2023-02-27T10:00:18.600Z,7.10
2023-02-27T10:03:05.978Z,6.20
2023-02-27T10:06:18.264Z,8.00
2023-02-27T10:07:40.155Z,5.70
2023-02-27T10:10:06.231Z,7.20
2023-02-27T10:11:11.089Z,8.70
2023-02-27T10:12:20.358Z,7.50
2023-02-27T10:14:01.740Z,7.90
2023-02-27T10:16:34.284Z,8.00
2023-02-27T10:19:17.344Z,8.10
2023-02-27T10:20:24.038Z,6.50
2023-02-27T10:21:36.904Z,8.10
2023-02-27T10:22:42.574Z,7.00
2023-02-27T10:25:30.290Z,6.80
2023-02-27T10:26:28.316Z,7.20
2023-02-27T10:27:30.918Z,7.30
2023-02-27T10:28:34.154Z,7.64
2023-02-27T10:30:56.756Z,8.30
2023-02-27T10:32:10.112Z,6.50
2023-02-27T10:33:28.144Z,7.10
2023-02-27T10:34:31.838Z,7.20
2023-02-27T10:35:36.535Z,8.10
2023-02-27T10:36:41.111Z,7.00
2023-02-27T10:37:50.161Z,6.90
2023-02-27T10:39:02.621Z,7.70
2023-02-27T10:40:06.644Z,7.80
2023-02-27T10:41:12.806Z,7.80
2023-02-27T10:42:16.087Z,8.30
2023-02-27T10:43:18.742Z,7.20
2023-02-27T10:44:23.526Z,7.50
2023-02-27T10:45:27.014Z,7.00
2023-02-27T10:46:31.851Z,7.50
2023-02-27T10:47:37.121Z,9.50
2023-02-27T10:48:40.950Z,9.00
2023-02-27T10:49:44.830Z,9.60
2023-02-27T10:50:53.409Z,10.40
2023-02-27T10:52:10.838Z,9.70
2023-02-27T10:53:19.122Z,8.40
2023-02-27T10:54:25.385Z,8.00
2023-02-27T10:55:32.938Z,8.60
2023-02-27T10:56:37.216Z,9.10
2023-02-27T10:57:41.639Z,9.00
2023-02-27T10:58:45.596Z,9.10
2023-02-27T10:59:54.139Z,11.10
2023-02-27T11:00:59.518Z,9.40
2023-02-27T11:02:09.037Z,9.10
2023-02-27T11:03:23.922Z,10.50
2023-02-27T11:04:33.518Z,10.90
2023-02-27T11:05:36.624Z,9.80
2023-02-27T11:06:40.903Z,8.20
2023-02-27T11:07:43.557Z,9.40
2023-02-27T11:08:45.910Z,7.30
2023-02-27T11:09:59.918Z,10.20
2023-02-27T11:11:11.248Z,9.10
2023-02-27T11:12:29.202Z,6.50
2023-02-27T11:13:37.621Z,10.70
2023-02-27T11:14:59.566Z,10.40
2023-02-27T11:16:14.312Z,9.90
2023-02-27T11:17:32.310Z,8.20
2023-02-27T11:18:36.120Z,10.50
2023-02-27T11:19:38.868Z,8.00
2023-02-27T11:20:43.388Z,9.45
2023-02-27T11:23:23.847Z,10.70
2023-02-27T11:24:28.451Z,9.50
2023-02-27T11:25:31.438Z,9.40
2023-02-27T11:26:41.142Z,12.60
2023-02-27T11:27:45.619Z,8.40
2023-02-27T11:29:08.640Z,9.70
2023-02-27T11:30:27.633Z,6.90
2023-02-27T11:31:31.251Z,9.50
2023-02-27T11:32:42.803Z,7.80
2023-02-27T11:33:55.029Z,7.70
2023-02-27T11:34:57.732Z,9.90
2023-02-27T11:36:00.528Z,10.20
2023-02-27T11:38:34.812Z,11.60
2023-02-27T11:39:40.295Z,9.30
2023-02-27T11:42:32.843Z,8.30
2023-02-27T11:43:45.505Z,9.80
2023-02-27T11:44:55.737Z,9.90
2023-02-27T11:46:33.151Z,9.10
2023-02-27T11:47:15.055Z,10.20
2023-02-27T11:48:42.101Z,6.90
2023-02-27T11:50:22.017Z,6.90
2023-02-27T11:51:39.852Z,9.80
2023-02-27T11:53:11.520Z,11.00
2023-02-27T11:55:52.255Z,8.60
2023-02-27T11:58:21.889Z,9.60
2023-02-27T12:01:00.199Z,9.10
2023-02-27T12:02:26.615Z,8.20
2023-02-27T12:03:36.082Z,11.20
2023-02-27T12:04:51.739Z,9.00
2023-02-27T12:05:58.557Z,9.80
2023-02-27T12:07:22.837Z,10.30
2023-02-27T12:08:45.959Z,9.40
2023-02-27T12:10:08.751Z,10.30
2023-02-27T12:11:35.523Z,7.90
2023-02-27T12:12:45.014Z,7.40
2023-02-27T12:13:52.550Z,10.20
2023-02-27T12:14:59.122Z,10.60
2023-02-27T12:16:22.895Z,8.70
2023-02-27T12:17:39.683Z,6.90
2023-02-27T12:18:47.311Z,7.70
2023-02-27T12:19:56.319Z,8.40
2023-02-27T12:21:20.958Z,11.20
2023-02-27T12:22:30.362Z,7.90
2023-02-27T12:23:39.264Z,11.20
2023-02-27T12:26:24.529Z,5.90
2023-02-27T12:27:43.858Z,11.90
2023-02-27T12:30:08.496Z,10.10
2023-02-27T12:31:33.003Z,10.00
2023-02-27T12:34:28.172Z,10.60
2023-02-27T12:35:34.609Z,9.20
2023-02-27T12:36:38.923Z,8.10
2023-02-27T12:37:41.834Z,8.90
2023-02-27T12:38:45.322Z,10.40
2023-02-27T12:39:49.660Z,9.45
2023-02-27T12:41:12.904Z,9.40
2023-02-27T12:42:40.593Z,9.70
2023-02-27T12:43:46.990Z,9.20
2023-02-27T12:45:27.047Z,7.50
2023-02-27T12:48:32.756Z,8.50
2023-02-27T12:49:54.562Z,10.00
2023-02-27T12:51:06.841Z,9.10
2023-02-27T12:52:19.635Z,8.10
2023-02-27T12:53:28.627Z,9.90
2023-02-27T12:54:57.588Z,9.90
2023-02-27T12:56:06.389Z,10.60
2023-02-27T12:57:21.441Z,8.80
2023-02-27T12:58:33.576Z,9.10
2023-02-27T12:59:55.371Z,7.80
2023-02-27T13:02:22.130Z,7.80
2023-02-27T13:04:48.620Z,6.00
2023-02-27T13:06:04.755Z,7.50
2023-02-27T13:08:47.276Z,5.40
2023-02-27T13:09:58.932Z,6.70
2023-02-27T13:11:22.289Z,8.60
2023-02-27T13:12:40.532Z,4.80
2023-02-27T13:14:12.814Z,7.50
2023-02-27T13:15:27.044Z,6.30
2023-02-27T13:16:35.215Z,6.60
2023-02-27T13:17:40.676Z,7.40
2023-02-27T13:19:03.982Z,7.00
2023-02-27T13:20:23.228Z,7.10
2023-02-27T13:21:30.458Z,5.90
2023-02-27T13:24:28.494Z,6.30
2023-02-27T13:25:31.369Z,7.30
2023-02-27T13:26:37.365Z,6.10
2023-02-27T13:27:49.644Z,5.10
2023-02-27T13:28:52.758Z,7.50
2023-02-27T13:30:04.883Z,6.60
2023-02-27T13:31:10.973Z,6.20
2023-02-27T13:32:43.051Z,6.00
2023-02-27T13:33:49.257Z,6.50
2023-02-27T13:36:29.405Z,6.40
2023-02-27T13:37:51.624Z,5.70
2023-02-27T13:38:55.423Z,6.10
2023-02-27T13:39:59.821Z,6.40
2023-02-27T13:42:48.158Z,6.40
2023-02-27T13:43:53.603Z,6.80
2023-02-27T13:46:26.653Z,7.00
2023-02-27T13:47:32.995Z,8.00
2023-02-27T13:48:47.650Z,7.90
2023-02-27T13:49:50.176Z,6.50
2023-02-27T13:50:54.117Z,2.70
2023-02-27T13:51:59.167Z,7.20
2023-02-27T13:53:08.249Z,7.50
2023-02-27T13:54:19.456Z,7.20
2023-02-27T13:55:31.416Z,6.90
2023-02-27T13:56:36.332Z,5.40
2023-02-27T13:57:42.671Z,6.70
2023-02-27T14:00:27.360Z,7.60
2023-02-27T14:01:34.459Z,7.00
2023-02-27T14:03:04.806Z,7.70
2023-02-27T14:04:07.327Z,7.60
2023-02-27T14:05:11.877Z,8.10
2023-02-27T14:06:15.073Z,7.50
2023-02-27T14:07:20.821Z,8.30
2023-02-27T14:08:32.190Z,6.90
2023-02-27T14:09:37.145Z,7.30
2023-02-27T14:10:41.688Z,6.90
2023-02-27T14:12:00.612Z,6.70
2023-02-27T14:13:03.802Z,8.30
2023-02-27T14:14:09.159Z,7.80
2023-02-27T14:15:25.745Z,8.10
2023-02-27T14:16:41.534Z,7.20
2023-02-27T14:17:46.569Z,7.60
2023-02-27T14:18:55.157Z,6.00
2023-02-27T14:19:59.821Z,8.00
2023-02-27T14:21:02.895Z,7.60
2023-02-27T14:22:15.377Z,7.40
2023-02-27T14:23:21.050Z,7.60
2023-02-27T14:25:57.650Z,8.10
2023-02-27T14:27:00.486Z,7.50
2023-02-27T14:28:03.039Z,6.27
2023-02-27T14:29:05.628Z,7.45
2023-02-27T14:31:33.296Z,7.20
2023-02-27T14:32:39.497Z,7.50
2023-02-27T14:33:45.711Z,7.10
2023-02-27T14:34:50.113Z,7.10
2023-02-27T14:36:00.457Z,7.20
2023-02-27T14:37:04.667Z,7.30
2023-02-27T14:39:33.762Z,7.10
2023-02-27T14:41:01.778Z,7.70
2023-02-27T14:42:28.148Z,6.90
2023-02-27T14:44:58.298Z,9.50
2023-02-27T14:46:14.287Z,8.70
2023-02-27T14:47:31.123Z,8.10
2023-02-27T14:48:36.286Z,7.10
2023-02-27T14:49:38.890Z,8.10
2023-02-27T14:50:41.564Z,7.80
2023-02-27T14:51:46.279Z,8.82
2023-02-27T14:52:50.902Z,8.40
2023-02-27T14:54:04.750Z,8.60
2023-02-27T14:55:24.120Z,7.70
2023-02-27T14:56:28.815Z,7.00
2023-02-27T14:57:32.539Z,9.30
2023-02-27T14:58:34.997Z,8.80
2023-02-27T14:59:45.678Z,6.70
2023-02-27T15:00:53.182Z,6.70
2023-02-27T15:01:58.890Z,7.30
2023-02-27T15:03:14.236Z,7.00
2023-02-27T15:04:20.202Z,7.30
2023-02-27T15:05:23.829Z,8.90
2023-02-27T15:06:43.088Z,7.90
2023-02-27T15:07:48.077Z,8.50
2023-02-27T15:08:53.303Z,4.50
2023-02-27T15:09:58.496Z,7.90
2023-02-27T15:11:01.971Z,7.40
2023-02-27T15:12:05.156Z,0.20
2023-02-27T15:13:14.569Z,8.20
2023-02-27T15:14:20.838Z,6.00
2023-02-27T15:15:24.312Z,7.50
2023-02-27T15:16:42.059Z,9.60
2023-02-27T15:17:46.476Z,9.20
2023-02-27T15:18:52.508Z,7.90
2023-02-27T15:19:56.817Z,7.90
2023-02-27T15:20:59.776Z,9.80
2023-02-27T15:22:05.791Z,9.40
2023-02-27T15:23:24.145Z,9.80
2023-02-27T15:24:35.235Z,12.00
2023-02-27T15:27:01.878Z,11.00
2023-02-27T15:28:08.282Z,12.20
2023-02-27T15:29:15.348Z,12.30
2023-02-27T15:30:20.371Z,14.90
2023-02-27T15:31:25.978Z,15.00
2023-02-27T15:32:37.421Z,14.10
2023-02-27T15:33:40.136Z,15.30
2023-02-27T15:34:43.425Z,14.80
2023-02-27T15:35:46.342Z,14.00
2023-02-27T15:36:55.761Z,14.40
2023-02-27T15:37:59.016Z,16.00
2023-02-27T15:39:06.301Z,16.70
2023-02-27T15:40:12.270Z,16.80
2023-02-27T15:41:15.122Z,14.60
2023-02-27T15:42:19.128Z,12.70
2023-02-27T15:43:24.011Z,16.40
2023-02-27T15:44:42.682Z,15.20
2023-02-27T15:45:45.760Z,15.70
2023-02-27T15:46:49.036Z,17.73
2023-02-27T15:47:51.988Z,16.30
2023-02-27T15:48:55.223Z,12.91
2023-02-27T15:50:18.448Z,17.10
2023-02-27T15:51:21.642Z,18.60
2023-02-27T15:52:25.040Z,20.36
2023-02-27T15:53:31.208Z,26.80
2023-02-27T15:54:35.143Z,43.10
2023-02-27T15:56:55.565Z,66.10
2023-02-27T15:58:03.233Z,74.00
2023-02-27T15:59:04.183Z,81.10
2023-02-27T16:00:09.826Z,79.10
2023-02-27T16:01:22.455Z,86.10
2023-02-27T16:02:31.303Z,79.70
2023-02-27T16:03:37.919Z,75.90
2023-02-27T16:04:40.523Z,73.40
2023-02-27T16:05:43.911Z,69.10
2023-02-27T16:06:50.268Z,68.00
2023-02-27T16:07:53.936Z,65.50
2023-02-27T16:09:01.486Z,68.10
2023-02-27T16:10:08.233Z,66.30
2023-02-27T16:11:22.372Z,65.20
2023-02-27T16:12:37.406Z,63.40
2023-02-27T16:13:40.056Z,59.20
2023-02-27T16:14:43.957Z,61.70
2023-02-27T16:15:52.333Z,57.10